Time;durP1;ratioP1;P1;durP2;ratioP2;P2;SDS_P1;SDS_P2;PMS_P1;PMS_P2;Temp;Humidity;BMP_temperature;BMP_pressure;BME280_temperature;BME280_humidity;BME280_pressure;Samples;Min_cycle;Max_cycle;Signal;HPM_P1;HPM_P2
2022/12/13 00:02:20;;;;;;;10.00;6.57;;;-1.40;75.90;;;;;;6178231;28;20462;-59
2022/12/13 00:05:23;;;;;;;7.07;6.00;;;-1.40;75.90;;;;;;6179009;28;21017;-58
2022/12/13 00:08:27;;;;;;;11.07;7.10;;;-1.40;75.90;;;;;;6164001;28;21005;-60
2022/12/13 00:11:31;;;;;;;9.87;7.30;;;-1.50;76.50;;;;;;6155058;28;20817;-62
2022/12/13 00:14:35;;;;;;;11.10;7.77;;;-1.60;76.40;;;;;;6142620;28;20484;-62
2022/12/13 00:17:38;;;;;;;11.17;7.13;;;-1.60;77.20;;;;;;6140127;28;20530;-62
2022/12/13 00:20:41;;;;;;;12.00;7.13;;;-1.60;78.50;;;;;;6130307;28;20554;-61
2022/12/13 00:23:46;;;;;;;11.90;5.93;;;-1.60;79.30;;;;;;6130811;28;20490;-62
2022/12/13 00:26:49;;;;;;;10.77;8.17;;;-1.60;79.50;;;;;;6131082;28;20491;-62
2022/12/13 00:29:52;;;;;;;10.83;9.40;;;-1.50;79.60;;;;;;6131524;28;20480;-61
2022/12/13 00:32:56;;;;;;;9.47;8.47;;;-1.60;78.80;;;;;;6138916;28;20471;-61
2022/12/13 00:35:59;;;;;;;9.13;7.10;;;-1.60;78.60;;;;;;6143233;28;20979;-62
2022/12/13 00:39:04;;;;;;;9.83;8.20;;;-1.60;78.90;;;;;;6138945;28;20480;-61
2022/12/13 00:42:07;;;;;;;10.90;7.13;;;-1.70;78.40;;;;;;6138721;28;20484;-62
2022/12/13 00:45:11;;;;;;;10.23;5.90;;;-1.70;78.80;;;;;;6154405;28;20559;-62
2022/12/13 00:48:15;;;;;;;7.87;6.60;;;-1.70;79.10;;;;;;6139237;28;20497;-62
2022/12/13 00:51:20;;;;;;;5.40;4.87;;;-1.70;78.90;;;;;;6135641;28;20817;-62
2022/12/13 00:54:24;;;;;;;7.53;5.60;;;-1.80;78.90;;;;;;6145392;28;20562;-62
2022/12/13 00:57:27;;;;;;;6.33;4.70;;;-1.80;78.60;;;;;;6143405;28;20487;-62
2022/12/13 01:00:32;;;;;;;9.53;6.10;;;-1.90;79.20;;;;;;6143640;28;20487;-62
2022/12/13 01:03:36;;;;;;;8.60;6.27;;;-1.90;79.30;;;;;;6141727;28;20938;-62
2022/12/13 01:06:41;;;;;;;5.43;4.80;;;-2.00;79.90;;;;;;6140675;28;20967;-62
2022/12/13 01:09:45;;;;;;;6.67;5.70;;;-2.00;80.70;;;;;;6146631;28;20470;-62
2022/12/13 01:12:48;;;;;;;8.17;7.13;;;-2.00;80.80;;;;;;6142288;28;20828;-62
2022/12/13 01:15:51;;;;;;;10.13;6.20;;;-2.00;80.80;;;;;;6140146;28;20479;-62
2022/12/13 01:18:56;;;;;;;6.07;4.53;;;-2.00;80.80;;;;;;6142376;28;20479;-62
2022/12/13 01:22:02;;;;;;;5.83;4.87;;;-2.00;80.80;;;;;;6141573;28;20479;-62
2022/12/13 01:25:07;;;;;;;7.67;6.73;;;-2.00;81.30;;;;;;6139756;28;20491;-62
2022/12/13 01:28:11;;;;;;;13.03;10.20;;;-2.00;81.60;;;;;;6154267;28;20481;-62
2022/12/13 01:31:16;;;;;;;12.50;10.33;;;-2.00;81.60;;;;;;6177554;28;20852;-62
2022/12/13 01:34:21;;;;;;;8.30;7.50;;;-2.00;81.60;;;;;;6177149;28;20797;-62
2022/12/13 01:37:28;;;;;;;11.23;7.60;;;-2.10;81.50;;;;;;6176913;28;20922;-62
2022/12/13 01:40:33;;;;;;;7.20;6.50;;;-2.10;81.40;;;;;;6176635;28;20497;-62
2022/12/13 01:43:55;;;;;;;6.67;6.03;;;-2.10;81.60;;;;;;6177206;28;20470;-62
2022/12/13 01:46:58;;;;;;;6.57;5.93;;;-2.10;82.40;;;;;;6177034;28;20485;-62
2022/12/13 01:50:06;;;;;;;10.47;6.30;;;-2.10;82.60;;;;;;6176826;28;20474;-62
2022/12/13 01:53:12;;;;;;;7.93;7.03;;;-2.20;83.00;;;;;;6176522;28;20808;-62
2022/12/13 01:56:21;;;;;;;7.97;6.27;;;-2.20;84.00;;;;;;6177052;28;20489;-62
2022/12/13 01:59:25;;;;;;;8.60;5.40;;;-2.20;83.90;;;;;;6177275;28;20478;-62
2022/12/13 02:02:29;;;;;;;6.23;5.73;;;-2.20;84.00;;;;;;6167924;28;20482;-62
2022/12/13 02:05:36;;;;;;;6.37;5.43;;;-2.30;83.80;;;;;;6178840;28;20478;-62
2022/12/13 02:08:41;;;;;;;7.60;6.80;;;-2.20;84.00;;;;;;6168203;28;20979;-61
2022/12/13 02:11:46;;;;;;;8.40;7.70;;;-2.30;84.50;;;;;;6143191;28;20822;-62
2022/12/13 02:14:51;;;;;;;9.17;6.10;;;-2.30;84.80;;;;;;6142396;28;20474;-63
2022/12/13 02:18:18;;;;;;;9.60;6.80;;;-2.30;85.20;;;;;;6152317;28;20975;-63
2022/12/13 02:21:27;;;;;;;6.50;5.90;;;-2.30;85.30;;;;;;6153116;28;20483;-63
2022/12/13 02:24:52;;;;;;;6.03;5.27;;;-2.30;85.60;;;;;;6151970;28;20881;-63
2022/12/13 02:28:12;;;;;;;5.93;4.53;;;-2.30;85.80;;;;;;6157505;28;20474;-63
2022/12/13 02:31:42;;;;;;;5.10;4.60;;;-2.40;85.70;;;;;;6157632;28;20559;-63
2022/12/13 02:34:51;;;;;;;7.80;5.60;;;-2.40;86.00;;;;;;6156964;28;20467;-63
2022/12/13 02:38:03;;;;;;;6.40;5.33;;;-2.40;86.20;;;;;;6157434;28;20502;-63
2022/12/13 02:41:14;;;;;;;5.47;4.67;;;-2.40;86.50;;;;;;6157530;28;20479;-63
2022/12/13 02:44:20;;;;;;;7.77;5.70;;;-2.50;86.50;;;;;;6156935;28;20494;-63
2022/12/13 02:47:29;;;;;;;7.57;6.77;;;-2.50;86.90;;;;;;6146084;28;20908;-63
2022/12/13 02:50:33;;;;;;;6.70;6.00;;;-2.50;87.40;;;;;;6133148;28;20479;-63
2022/12/13 02:53:38;;;;;;;8.87;8.00;;;-2.50;87.60;;;;;;6133223;28;20650;-63
2022/12/13 02:56:41;;;;;;;10.10;7.53;;;-2.50;87.60;;;;;;6169045;28;20474;-63
2022/12/13 02:59:44;;;;;;;6.53;5.93;;;-2.70;87.30;;;;;;6165582;28;20479;-63
2022/12/13 03:03:12;;;;;;;5.30;4.80;;;-2.60;87.90;;;;;;6133599;28;20502;-63
2022/12/13 03:06:32;;;;;;;6.33;4.33;;;-2.60;88.00;;;;;;6129537;28;20496;-63
2022/12/13 03:09:49;;;;;;;6.30;4.40;;;-2.70;88.00;;;;;;6151422;28;20486;-63
2022/12/13 03:16:27;;;;;;;7.03;6.43;;;-2.70;87.90;;;;;;6156583;28;20517;-62
2022/12/13 03:19:32;;;;;;;6.47;5.87;;;-2.70;87.90;;;;;;6156206;28;20434;-63
2022/12/13 03:22:35;;;;;;;6.97;5.00;;;-2.70;87.60;;;;;;6156522;28;20497;-62
2022/12/13 03:25:38;;;;;;;5.50;4.93;;;-2.70;88.20;;;;;;6156610;28;20573;-63
2022/12/13 03:28:41;;;;;;;4.87;4.40;;;-2.80;88.30;;;;;;6156144;28;20526;-63
2022/12/13 03:31:45;;;;;;;5.97;4.00;;;-2.80;88.30;;;;;;6156880;28;20474;-64
2022/12/13 03:34:50;;;;;;;5.00;3.73;;;-2.70;88.70;;;;;;6156290;28;20470;-64
2022/12/13 03:38:04;;;;;;;3.60;3.30;;;-2.70;88.10;;;;;;6156240;28;20602;-63
2022/12/13 03:41:10;;;;;;;5.00;4.30;;;-2.70;87.70;;;;;;6156021;28;20475;-63
2022/12/13 03:44:14;;;;;;;5.50;4.03;;;-2.70;88.10;;;;;;6156098;28;20490;-63
2022/12/13 03:47:17;;;;;;;5.53;4.43;;;-2.80;88.30;;;;;;6155901;28;20481;-63
2022/12/13 03:50:21;;;;;;;5.33;4.23;;;-2.80;88.70;;;;;;6155681;28;20541;-63
2022/12/13 03:53:30;;;;;;;4.30;3.90;;;-2.80;88.80;;;;;;6156227;28;20622;-63
2022/12/13 03:56:36;;;;;;;5.03;4.23;;;-2.80;88.70;;;;;;6173345;28;20474;-63
2022/12/13 03:59:39;;;;;;;8.07;4.50;;;-2.80;88.40;;;;;;6179733;28;20470;-63
2022/12/13 04:02:42;;;;;;;4.73;4.03;;;-2.80;88.40;;;;;;6179500;28;20486;-62
2022/12/13 04:05:46;;;;;;;4.93;3.90;;;-2.90;89.00;;;;;;6179757;28;20578;-63
2022/12/13 04:08:50;;;;;;;4.17;3.77;;;-2.90;89.00;;;;;;6162034;28;20486;-62
2022/12/13 04:15:13;;;;;;;5.17;4.73;;;-3.00;89.10;;;;;;6155320;28;20490;-63
2022/12/13 04:18:18;;;;;;;4.70;4.30;;;-3.10;89.20;;;;;;6155300;28;20493;-63
2022/12/13 04:21:22;;;;;;;5.23;4.27;;;-3.10;89.80;;;;;;6155004;28;20858;-63
2022/12/13 04:24:26;;;;;;;5.10;4.13;;;-3.00;89.80;;;;;;6154819;28;20483;-63
2022/12/13 04:27:33;;;;;;;4.73;4.33;;;-3.10;89.70;;;;;;6155253;28;20513;-63
2022/12/13 04:30:37;;;;;;;5.40;4.40;;;-3.10;89.50;;;;;;6155181;28;20541;-63
2022/12/13 04:33:40;;;;;;;4.07;3.67;;;-3.10;89.70;;;;;;6154626;28;20562;-64
2022/12/13 04:36:44;;;;;;;4.77;3.73;;;-3.10;89.90;;;;;;6155056;28;20485;-64
2022/12/13 04:39:48;;;;;;;5.87;5.00;;;-3.10;90.10;;;;;;6154764;28;20557;-63
2022/12/13 04:42:51;;;;;;;7.23;4.40;;;-3.10;90.10;;;;;;6154732;28;20486;-64
2022/12/13 04:45:57;;;;;;;6.33;5.50;;;-3.20;90.40;;;;;;6154485;28;20475;-64
2022/12/13 04:49:00;;;;;;;8.53;7.73;;;-3.20;90.50;;;;;;6154077;28;20482;-64
2022/12/13 04:52:05;;;;;;;9.73;7.83;;;-3.20;90.50;;;;;;6154334;28;20808;-64
2022/12/13 04:55:09;;;;;;;6.80;6.17;;;-3.20;90.50;;;;;;6159787;28;20557;-64
2022/12/13 04:58:12;;;;;;;10.60;5.93;;;-3.30;90.90;;;;;;6178239;28;20474;-63
2022/12/13 05:01:21;;;;;;;9.60;6.67;;;-3.30;91.10;;;;;;6178407;28;20593;-64
2022/12/13 05:04:24;;;;;;;9.47;6.43;;;-3.40;91.40;;;;;;6178114;28;20474;-65
2022/12/13 05:07:36;;;;;;;11.60;7.20;;;-3.30;91.50;;;;;;6175564;28;20441;-64
2022/12/13 05:10:44;;;;;;;10.93;6.77;;;-3.30;91.50;;;;;;6154195;28;20467;-64
2022/12/13 05:13:47;;;;;;;6.73;5.70;;;-3.30;91.50;;;;;;6154011;28;20478;-64
2022/12/13 05:16:52;;;;;;;7.60;5.30;;;-3.30;91.50;;;;;;6154078;28;20973;-64
2022/12/13 05:19:55;;;;;;;5.47;4.90;;;-3.30;91.50;;;;;;6153796;28;20517;-64
2022/12/13 05:22:59;;;;;;;7.33;6.20;;;-3.30;91.50;;;;;;6153966;28;20479;-64
2022/12/13 05:26:03;;;;;;;6.63;5.87;;;-3.30;91.50;;;;;;6153611;28;20470;-64
2022/12/13 05:29:06;;;;;;;6.17;5.57;;;-3.30;91.50;;;;;;6154249;28;20490;-64
2022/12/13 05:32:09;;;;;;;8.60;5.87;;;-3.30;91.70;;;;;;6153494;28;20481;-64
2022/12/13 05:35:13;;;;;;;5.93;4.60;;;-3.30;91.90;;;;;;6153802;28;20613;-63
2022/12/13 05:38:27;;;;;;;6.20;5.60;;;-3.40;91.90;;;;;;6153435;28;20775;-64
2022/12/13 05:41:34;;;;;;;11.73;8.30;;;-3.30;91.80;;;;;;6153561;28;20483;-64
2022/12/13 05:44:37;;;;;;;10.80;8.80;;;-3.40;91.80;;;;;;6153331;28;20521;-64
2022/12/13 05:47:40;;;;;;;7.77;6.97;;;-3.30;92.00;;;;;;6153331;28;20850;-64
2022/12/13 05:50:43;;;;;;;7.50;6.33;;;-3.40;91.90;;;;;;6153214;28;20828;-64
2022/12/13 05:53:48;;;;;;;7.53;6.33;;;-3.30;91.80;;;;;;6153243;28;20963;-64
2022/12/13 05:56:55;;;;;;;7.70;6.57;;;-3.40;91.60;;;;;;6172839;28;20921;-64
2022/12/13 05:59:58;;;;;;;6.97;6.27;;;-3.40;91.70;;;;;;6176729;28;21274;-64
2022/12/13 06:03:01;;;;;;;8.03;7.17;;;-3.50;91.90;;;;;;6176975;28;20466;-64
2022/12/13 06:06:07;;;;;;;9.33;8.37;;;-3.50;91.90;;;;;;6185613;28;20476;-63
2022/12/13 06:09:11;;;;;;;9.20;8.20;;;-3.50;91.90;;;;;;6180747;28;20482;-64
2022/12/13 06:12:15;;;;;;;8.67;6.90;;;-3.50;91.90;;;;;;6153155;28;20474;-64
2022/12/13 06:15:34;;;;;;;6.87;6.17;;;-3.40;91.90;;;;;;6153250;28;20551;-63
2022/12/13 06:18:46;;;;;;;9.63;6.03;;;-3.50;91.90;;;;;;6144274;28;20486;-64
2022/12/13 06:21:54;;;;;;;9.63;6.27;;;-3.60;91.90;;;;;;6152713;28;20491;-65
2022/12/13 06:25:00;;;;;;;10.63;5.87;;;-3.50;92.10;;;;;;6152735;28;20955;-65
2022/12/13 06:28:03;;;;;;;10.97;6.97;;;-3.50;92.20;;;;;;6152853;28;20482;-64
2022/12/13 06:31:06;;;;;;;11.83;8.10;;;-3.50;92.20;;;;;;6152675;28;20487;-64
2022/12/13 06:34:10;;;;;;;8.63;6.97;;;-3.50;92.10;;;;;;6152662;28;21049;-64
2022/12/13 06:37:17;;;;;;;9.90;7.30;;;-3.50;92.00;;;;;;6152572;28;20486;-64
2022/12/13 06:40:21;;;;;;;12.07;7.67;;;-3.50;92.20;;;;;;6152601;28;20529;-64
2022/12/13 06:43:25;;;;;;;9.07;6.83;;;-3.50;92.30;;;;;;6152608;28;20557;-64
2022/12/13 06:46:28;;;;;;;9.27;5.67;;;-3.50;92.40;;;;;;6152691;28;20816;-64
2022/12/13 06:49:31;;;;;;;6.57;5.40;;;-3.50;92.30;;;;;;6152873;28;20518;-64
2022/12/13 06:52:34;;;;;;;9.63;6.37;;;-3.50;92.20;;;;;;6152731;28;20463;-64
2022/12/13 06:55:39;;;;;;;10.00;7.33;;;-3.50;92.10;;;;;;6161850;28;20446;-64
2022/12/13 06:58:43;;;;;;;10.80;7.77;;;-3.50;92.00;;;;;;6176413;28;20466;-64
2022/12/13 07:01:46;;;;;;;11.57;10.43;;;-3.40;92.00;;;;;;6176545;28;20469;-64
2022/12/13 07:04:54;;;;;;;12.30;10.60;;;-3.40;91.90;;;;;;6176020;28;20482;-64
2022/12/13 07:07:57;;;;;;;10.50;8.93;;;-3.40;92.30;;;;;;6170575;28;20475;-64
2022/12/13 07:11:02;;;;;;;11.63;10.30;;;-3.40;92.00;;;;;;6153107;28;20582;-64
2022/12/13 07:14:05;;;;;;;7.70;7.00;;;-3.30;92.10;;;;;;6156568;28;20474;-64
2022/12/13 07:17:09;;;;;;;10.70;7.63;;;-3.30;92.00;;;;;;6156818;28;20824;-63
2022/12/13 07:20:14;;;;;;;8.83;6.57;;;-3.30;92.00;;;;;;6152684;28;20933;-63
2022/12/13 07:23:17;;;;;;;10.60;7.83;;;-3.20;92.20;;;;;;6156173;28;20470;-64
2022/12/13 07:26:28;;;;;;;10.93;8.30;;;-3.20;92.10;;;;;;6156676;28;20533;-64
2022/12/13 07:29:31;;;;;;;8.20;7.30;;;-3.10;92.10;;;;;;6156389;28;20491;-64
2022/12/13 07:32:34;;;;;;;11.13;7.93;;;-3.10;92.00;;;;;;6156383;28;20986;-64
2022/12/13 07:35:37;;;;;;;10.47;7.47;;;-3.00;92.00;;;;;;6172044;28;20485;-65
2022/12/13 07:38:41;;;;;;;10.03;7.90;;;-3.00;92.00;;;;;;6180186;28;20474;-63
2022/12/13 07:41:48;;;;;;;9.63;6.97;;;-2.90;91.90;;;;;;6180020;28;20555;-64
2022/12/13 07:44:51;;;;;;;11.77;7.60;;;-2.90;91.70;;;;;;6179799;28;20496;-64
2022/12/13 07:47:54;;;;;;;5.77;5.27;;;-2.80;91.80;;;;;;6179793;28;20949;-63
2022/12/13 07:51:01;;;;;;;9.83;7.10;;;-2.70;91.80;;;;;;6179951;28;20473;-63
2022/12/13 07:54:07;;;;;;;10.40;6.10;;;-2.70;91.70;;;;;;6179843;28;20493;-63
2022/12/13 07:57:12;;;;;;;12.50;7.03;;;-2.70;91.60;;;;;;6179853;28;20500;-63
2022/12/13 08:00:15;;;;;;;9.10;6.20;;;-2.60;91.60;;;;;;6179934;28;20481;-63
2022/12/13 08:03:19;;;;;;;7.17;5.73;;;-2.50;91.50;;;;;;6179627;28;20486;-63
2022/12/13 08:06:28;;;;;;;8.17;7.37;;;-2.40;91.50;;;;;;6179222;28;20981;-63
2022/12/13 08:09:31;;;;;;;7.70;6.00;;;-2.30;91.40;;;;;;6161543;28;20510;-62
2022/12/13 08:12:35;;;;;;;8.60;5.93;;;-2.30;91.30;;;;;;6155433;28;20487;-63
2022/12/13 08:15:38;;;;;;;9.40;6.13;;;-2.20;91.10;;;;;;6155403;28;20538;-63
2022/12/13 08:18:42;;;;;;;8.40;6.13;;;-2.20;91.20;;;;;;6155446;28;20478;-63
2022/12/13 08:21:46;;;;;;;12.43;5.97;;;-2.20;90.60;;;;;;6155103;28;20478;-63
2022/12/13 08:24:59;;;;;;;8.03;5.10;;;-2.10;90.40;;;;;;6154636;28;20475;-63
2022/12/13 08:28:04;;;;;;;6.20;5.30;;;-2.10;89.90;;;;;;6155222;28;20478;-63
2022/12/13 08:31:10;;;;;;;6.83;4.30;;;-2.10;89.70;;;;;;6153024;28;20490;-63
2022/12/13 08:34:13;;;;;;;10.33;5.80;;;-2.00;88.60;;;;;;6151745;28;20523;-63
2022/12/13 08:37:16;;;;;;;8.93;6.07;;;-2.00;88.20;;;;;;6154863;28;20479;-63
2022/12/13 08:40:20;;;;;;;8.43;5.67;;;-1.90;88.60;;;;;;6155156;28;20986;-63
2022/12/13 08:43:24;;;;;;;6.37;4.73;;;-1.80;88.60;;;;;;6175567;28;20517;-62
2022/12/13 08:46:28;;;;;;;7.67;5.27;;;-1.80;87.60;;;;;;6170799;28;20964;-62
2022/12/13 08:49:31;;;;;;;5.80;5.20;;;-1.70;87.10;;;;;;6156771;28;20674;-63
2022/12/13 08:52:35;;;;;;;6.60;5.50;;;-1.70;86.90;;;;;;6155846;28;20466;-63
2022/12/13 08:55:42;;;;;;;7.47;5.40;;;-1.60;86.90;;;;;;6165232;28;20464;-63
2022/12/13 08:58:50;;;;;;;7.63;4.80;;;-1.60;86.30;;;;;;6178620;28;20462;-62
2022/12/13 09:01:53;;;;;;;8.83;6.50;;;-1.50;85.80;;;;;;6179412;28;20489;-63
2022/12/13 09:05:02;;;;;;;7.17;4.93;;;-1.50;86.10;;;;;;6170447;28;20475;-63
2022/12/13 09:08:06;;;;;;;9.03;6.17;;;-1.40;86.30;;;;;;6153910;28;20474;-62
2022/12/13 09:11:27;;;;;;;11.77;9.10;;;-1.30;86.30;;;;;;6153900;28;20478;-62
2022/12/13 09:14:40;;;;;;;9.90;6.53;;;-1.20;87.00;;;;;;6153478;28;20895;-62
2022/12/13 09:17:47;;;;;;;13.00;8.37;;;-1.10;87.20;;;;;;6153779;28;20478;-62
2022/12/13 09:20:54;;;;;;;11.63;6.33;;;-1.10;85.80;;;;;;6153345;28;20530;-61
2022/12/13 09:24:14;;;;;;;8.77;6.50;;;-1.00;85.10;;;;;;6153710;28;20501;-62
2022/12/13 09:27:28;;;;;;;7.60;5.47;;;-0.90;84.80;;;;;;6153528;28;20937;-62
2022/12/13 09:30:33;;;;;;;8.37;6.33;;;-0.80;83.40;;;;;;6143991;28;20817;-62
2022/12/13 09:33:37;;;;;;;6.93;6.20;;;-0.70;82.90;;;;;;6153327;28;20959;-61
2022/12/13 09:36:43;;;;;;;9.40;6.07;;;-0.70;83.00;;;;;;6153110;28;20506;-59
2022/12/13 09:39:47;;;;;;;12.53;6.20;;;-0.50;83.10;;;;;;6153215;28;20478;-60
2022/12/13 09:42:57;;;;;;;12.23;6.80;;;-0.40;82.70;;;;;;6152869;28;20525;-60
2022/12/13 09:46:28;;;;;;;10.77;7.23;;;-0.30;82.10;;;;;;6152837;28;20538;-62
2022/12/13 09:49:47;;;;;;;18.40;8.00;;;-0.20;82.50;;;;;;6152928;28;20838;-61
2022/12/13 09:52:57;;;;;;;17.03;8.57;;;-0.10;83.70;;;;;;6153108;28;20483;-61
2022/12/13 09:56:02;;;;;;;13.70;8.40;;;-0.10;84.00;;;;;;6165761;28;20906;-61
2022/12/13 09:59:14;;;;;;;7.90;5.70;;;-0.10;82.60;;;;;;6177010;28;20477;-61
2022/12/13 10:02:24;;;;;;;12.07;7.00;;;0.00;82.00;;;;;;6176714;28;20798;-61
2022/12/13 10:05:30;;;;;;;8.70;6.13;;;0.00;80.70;;;;;;6168340;28;20485;-65
2022/12/13 10:08:44;;;;;;;7.87;6.60;;;0.10;80.10;;;;;;6152658;28;20475;-61
2022/12/13 10:11:49;;;;;;;11.37;8.57;;;0.10;80.20;;;;;;6149614;28;20443;-62
2022/12/13 10:14:56;;;;;;;11.57;7.60;;;0.30;80.50;;;;;;6141695;28;20610;-62
2022/12/13 10:18:04;;;;;;;9.00;7.87;;;0.20;78.80;;;;;;6144170;28;20482;-62
2022/12/13 10:21:11;;;;;;;20.03;8.80;;;0.20;79.60;;;;;;6131189;28;20472;-62
2022/12/13 10:24:18;;;;;;;11.93;8.00;;;0.30;80.20;;;;;;6128806;28;20554;-62
2022/12/13 10:27:40;;;;;;;13.03;7.70;;;0.30;80.10;;;;;;6128930;28;20484;-62
2022/12/13 10:30:44;;;;;;;12.17;8.40;;;0.40;80.40;;;;;;6129264;28;20476;-62
2022/12/13 10:33:55;;;;;;;15.27;9.07;;;0.50;80.20;;;;;;6143817;28;20467;-61
2022/12/13 10:36:58;;;;;;;12.10;8.87;;;0.60;79.70;;;;;;6156418;28;20483;-61
2022/12/13 10:40:02;;;;;;;10.87;8.37;;;0.50;79.90;;;;;;6156602;28;20481;-64
2022/12/13 10:43:14;;;;;;;8.13;7.33;;;0.50;80.10;;;;;;6152102;28;20490;-61
2022/12/13 10:46:20;;;;;;;11.27;8.80;;;0.50;79.80;;;;;;6152976;28;20590;-62
2022/12/13 10:49:35;;;;;;;9.23;8.23;;;0.60;80.50;;;;;;6157038;28;20458;-62
2022/12/13 10:52:46;;;;;;;11.33;8.53;;;0.70;80.40;;;;;;6156858;28;20470;-61
2022/12/13 10:55:55;;;;;;;11.70;8.20;;;0.70;80.20;;;;;;6167954;28;20473;-62
2022/12/13 10:59:21;;;;;;;9.17;8.27;;;0.90;79.50;;;;;;6180548;28;20822;-64
2022/12/13 11:02:34;;;;;;;7.97;7.20;;;1.00;79.40;;;;;;6180789;28;20474;-61
2022/12/13 11:05:39;;;;;;;8.83;7.23;;;1.20;79.00;;;;;;6170510;28;20550;-61
2022/12/13 11:08:42;;;;;;;8.80;6.07;;;1.30;77.10;;;;;;6156378;28;20818;-63
2022/12/13 11:11:46;;;;;;;12.53;8.90;;;1.50;76.60;;;;;;6156694;28;20479;-64
2022/12/13 11:14:53;;;;;;;8.83;7.33;;;3.80;74.40;;;;;;6156817;28;20549;-62
2022/12/13 11:17:58;;;;;;;10.53;8.50;;;7.00;61.30;;;;;;6156834;28;20490;-62
2022/12/13 11:21:06;;;;;;;11.60;8.20;;;8.30;54.10;;;;;;6156587;28;20478;-63
2022/12/13 11:24:16;;;;;;;8.57;7.50;;;7.40;51.40;;;;;;6156684;28;20487;-63
2022/12/13 11:27:45;;;;;;;10.60;8.60;;;6.00;53.00;;;;;;6157061;28;20493;-63
2022/12/13 11:30:56;;;;;;;12.57;7.43;;;7.20;54.50;;;;;;6157077;28;20478;-63
2022/12/13 11:34:12;;;;;;;9.00;7.00;;;11.30;46.80;;;;;;6156616;28;20475;-64
2022/12/13 11:37:39;;;;;;;8.27;7.50;;;15.80;38.40;;;;;;6152045;28;20482;-64
2022/12/13 11:40:47;;;;;;;8.20;7.40;;;17.50;29.10;;;;;;6154941;28;20561;-64
2022/12/13 11:43:54;;;;;;;8.00;7.20;;;19.90;27.00;;;;;;6154894;28;20481;-66
2022/12/13 11:47:00;;;;;;;9.17;8.27;;;21.70;23.50;;;;;;6154862;28;20790;-65
2022/12/13 11:50:14;;;;;;;10.80;9.70;;;22.20;21.70;;;;;;6153492;28;20722;-64
2022/12/13 11:53:45;;;;;;;9.47;8.57;;;23.20;21.40;;;;;;6153824;28;20249;-64
2022/12/13 11:56:48;;;;;;;8.03;7.10;;;23.30;19.80;;;;;;6171833;28;20238;-64
2022/12/13 12:00:09;;;;;;;7.50;6.57;;;19.80;20.40;;;;;;6177081;28;20249;-64
2022/12/13 12:03:19;;;;;;;6.13;5.53;;;16.30;23.10;;;;;;6178192;28;20501;-64
2022/12/13 12:06:24;;;;;;;6.40;5.90;;;17.10;24.10;;;;;;6162990;28;20566;-64
2022/12/13 12:09:30;;;;;;;6.93;6.27;;;19.70;22.50;;;;;;6155170;28;20474;-64
2022/12/13 12:12:34;;;;;;;7.57;6.87;;;21.00;20.90;;;;;;6154562;28;20479;-63
2022/12/13 12:15:44;;;;;;;8.40;7.60;;;20.70;20.40;;;;;;6154656;28;20231;-64
2022/12/13 12:18:49;;;;;;;6.60;6.00;;;18.90;21.20;;;;;;6154447;28;20471;-64
2022/12/13 12:22:15;;;;;;;8.27;7.40;;;16.20;22.60;;;;;;6154625;28;20471;-63
2022/12/13 12:25:26;;;;;;;7.53;6.83;;;15.50;24.40;;;;;;6154560;28;20493;-63
2022/12/13 12:28:43;;;;;;;6.43;5.83;;;18.00;23.30;;;;;;6154375;28;20439;-64
2022/12/13 12:32:00;;;;;;;6.53;6.00;;;20.50;21.30;;;;;;6154130;28;20954;-64
2022/12/13 12:35:17;;;;;;;7.70;6.33;;;21.50;20.30;;;;;;6154067;28;20235;-64
2022/12/13 12:38:44;;;;;;;6.07;5.57;;;22.80;19.90;;;;;;6154309;28;20258;-64
2022/12/13 12:42:00;;;;;;;5.33;4.83;;;23.60;18.40;;;;;;6154380;28;20567;-65
2022/12/13 12:45:24;;;;;;;5.40;4.90;;;23.30;17.80;;;;;;6155059;28;20249;-64
2022/12/13 12:49:08;;;;;;;6.40;5.60;;;24.50;18.20;;;;;;6155968;28;20234;-64
2022/12/13 12:52:18;;;;;;;6.60;5.90;;;25.00;17.60;;;;;;6154222;28;20235;-64
2022/12/13 12:55:32;;;;;;;3.80;3.40;;;23.30;18.00;;;;;;6160567;28;20235;-64
2022/12/13 12:58:46;;;;;;;5.40;4.87;;;22.90;16.30;;;;;;6177756;28;20221;-63
2022/12/13 13:01:57;;;;;;;7.60;4.10;;;22.10;17.30;;;;;;6177623;28;20241;-63
2022/12/13 13:05:04;;;;;;;5.03;4.63;;;19.00;18.40;;;;;;6171884;28;20562;-63
2022/12/13 13:08:14;;;;;;;6.43;5.47;;;16.30;20.80;;;;;;6153011;28;20804;-64
2022/12/13 13:11:17;;;;;;;6.47;5.80;;;15.20;23.00;;;;;;6153359;28;20466;-64
2022/12/13 13:14:32;;;;;;;6.20;4.97;;;16.60;22.80;;;;;;6152958;28;20497;-64
2022/12/13 13:17:47;;;;;;;6.73;5.20;;;18.00;21.70;;;;;;6153972;28;20466;-62
2022/12/13 13:21:25;;;;;;;6.77;5.53;;;18.20;21.10;;;;;;6147496;28;20830;-64
2022/12/13 13:24:30;;;;;;;5.43;4.90;;;17.60;21.40;;;;;;6153053;28;20553;-64
2022/12/13 13:27:39;;;;;;;6.97;6.33;;;15.50;22.90;;;;;;6153588;28;20471;-63
2022/12/13 13:31:03;;;;;;;7.23;5.80;;;15.30;23.70;;;;;;6153321;28;20962;-63
2022/12/13 13:34:23;;;;;;;7.30;5.40;;;17.10;23.10;;;;;;6147851;28;20490;-64
2022/12/13 13:37:46;;;;;;;5.07;4.60;;;18.30;22.40;;;;;;6152768;28;20467;-62
2022/12/13 13:40:50;;;;;;;5.60;4.90;;;18.70;21.50;;;;;;6152706;28;20466;-61
2022/12/13 13:43:53;;;;;;;6.70;4.90;;;18.10;21.60;;;;;;6136892;28;20584;-62
2022/12/13 13:47:13;;;;;;;6.57;5.70;;;18.70;21.80;;;;;;6146851;28;20470;-62
2022/12/13 13:50:53;;;;;;;5.80;4.90;;;18.70;21.40;;;;;;6153256;28;20474;-62
2022/12/13 13:54:35;;;;;;;4.57;4.13;;;18.50;20.70;;;;;;6144849;28;20479;-61
2022/12/13 13:58:18;;;;;;;5.57;5.03;;;18.70;20.00;;;;;;6129487;28;20460;-59
2022/12/13 14:01:53;;;;;;;4.87;4.47;;;19.10;19.90;;;;;;6129298;28;20478;-60
2022/12/13 14:05:34;;;;;;;6.33;5.27;;;19.20;19.50;;;;;;6133911;28;20471;-62
2022/12/13 14:08:48;;;;;;;6.70;4.80;;;18.40;19.90;;;;;;6149289;28;20506;-59
2022/12/13 14:12:33;;;;;;;5.20;4.80;;;17.90;20.60;;;;;;6150979;28;20478;-61
2022/12/13 14:16:16;;;;;;;6.50;5.90;;;17.20;21.50;;;;;;6150649;28;20471;-60
2022/12/13 14:20:16;;;;;;;6.60;5.90;;;16.10;22.40;;;;;;6150662;28;20975;-61
2022/12/13 14:23:39;;;;;;;6.83;5.10;;;13.50;24.40;;;;;;6151061;28;20938;-61
2022/12/13 14:26:51;;;;;;;7.37;6.63;;;11.10;27.00;;;;;;6150883;28;20479;-61
2022/12/13 14:29:54;;;;;;;15.00;6.30;;;9.40;29.80;;;;;;6150992;28;20848;-61
2022/12/13 14:33:01;;;;;;;6.97;6.37;;;7.90;32.40;;;;;;6150367;28;20542;-60
2022/12/13 14:36:04;;;;;;;7.07;6.33;;;6.50;35.10;;;;;;6150183;28;20863;-60
2022/12/13 14:39:16;;;;;;;9.13;6.60;;;5.70;37.40;;;;;;6151152;28;20481;-60
2022/12/13 14:42:32;;;;;;;6.73;5.10;;;5.00;39.20;;;;;;6150414;28;20493;-59
2022/12/13 14:45:37;;;;;;;9.90;6.83;;;4.40;40.90;;;;;;6150522;28;20800;-61
2022/12/13 14:48:46;;;;;;;8.13;5.93;;;4.10;42.00;;;;;;6147644;28;20478;-61
2022/12/13 14:51:59;;;;;;;11.63;6.30;;;3.80;43.00;;;;;;6153265;28;20550;-59
2022/12/13 14:55:04;;;;;;;9.00;7.00;;;3.60;43.90;;;;;;6160979;28;20632;-60
2022/12/13 14:58:18;;;;;;;13.67;10.27;;;3.20;45.00;;;;;;6176050;28;20512;-61
2022/12/13 15:01:27;;;;;;;19.50;9.90;;;3.10;45.80;;;;;;6175410;28;20481;-60
2022/12/13 15:04:34;;;;;;;21.60;15.37;;;2.80;46.70;;;;;;6172059;28;20469;-61
2022/12/13 15:07:40;;;;;;;15.20;11.23;;;2.50;47.10;;;;;;6151095;28;20439;-60
2022/12/13 15:10:47;;;;;;;13.53;8.20;;;2.30;48.10;;;;;;6150429;28;20443;-60
2022/12/13 15:13:51;;;;;;;7.63;6.53;;;2.10;48.70;;;;;;6150280;28;20542;-60
2022/12/13 15:16:56;;;;;;;12.97;10.13;;;2.00;49.30;;;;;;6150623;28;20471;-60
2022/12/13 15:20:00;;;;;;;21.90;13.67;;;1.90;50.10;;;;;;6150237;28;20482;-59
2022/12/13 15:23:07;;;;;;;32.70;20.93;;;1.90;50.80;;;;;;6150303;28;20479;-60
2022/12/13 15:26:14;;;;;;;21.23;16.30;;;1.90;51.30;;;;;;6150203;28;20470;-61
2022/12/13 15:29:34;;;;;;;11.20;9.73;;;1.90;51.50;;;;;;6150378;28;20475;-61
2022/12/13 15:32:57;;;;;;;8.50;7.67;;;1.90;52.30;;;;;;6135590;28;20882;-60
2022/12/13 15:36:09;;;;;;;13.03;8.70;;;1.80;53.40;;;;;;6129723;28;20522;-60
2022/12/13 15:39:12;;;;;;;13.10;10.40;;;1.80;53.70;;;;;;6138220;28;20467;-63
2022/12/13 15:42:23;;;;;;;11.47;10.30;;;1.80;54.30;;;;;;6153848;28;20471;-64
2022/12/13 15:45:27;;;;;;;13.03;11.10;;;1.70;55.10;;;;;;6152791;28;20883;-64
2022/12/13 15:48:42;;;;;;;9.97;8.13;;;1.70;55.40;;;;;;6151967;28;20487;-64
2022/12/13 15:51:56;;;;;;;29.43;19.70;;;1.80;56.40;;;;;;6152991;28;20560;-64
2022/12/13 15:55:01;;;;;;;19.60;15.70;;;1.70;57.40;;;;;;6156112;28;20534;-65
2022/12/13 15:58:25;;;;;;;15.87;14.30;;;1.70;59.00;;;;;;6176785;28;20482;-64
2022/12/13 16:01:30;;;;;;;11.93;9.13;;;1.60;60.10;;;;;;6177837;28;20573;-65
2022/12/13 16:04:33;;;;;;;10.67;8.60;;;1.60;62.00;;;;;;6175991;28;20496;-64
2022/12/13 16:07:38;;;;;;;11.10;9.67;;;1.60;62.20;;;;;;6153347;28;20482;-64
2022/12/13 16:10:47;;;;;;;11.37;9.30;;;1.60;62.90;;;;;;6153063;28;20780;-65
2022/12/13 16:13:50;;;;;;;12.97;11.73;;;1.70;64.20;;;;;;6153367;28;20475;-65
2022/12/13 16:17:02;;;;;;;16.03;11.77;;;1.70;65.60;;;;;;6153148;28;20849;-64
2022/12/13 16:20:14;;;;;;;12.10;10.33;;;1.60;66.70;;;;;;6152915;28;20490;-64
2022/12/13 16:23:19;;;;;;;14.20;11.00;;;1.60;68.50;;;;;;6152915;28;20485;-64
2022/12/13 16:26:30;;;;;;;12.30;9.70;;;1.50;69.90;;;;;;6152604;28;20546;-64
2022/12/13 16:29:33;;;;;;;11.60;9.90;;;1.40;71.00;;;;;;6153484;28;20481;-64